createdAt,value
2017-12-10T00:00:33.367Z,0
2017-12-10T00:01:34.120Z,0
2017-12-10T00:02:33.171Z,0
2017-12-10T00:03:33.350Z,0
2017-12-10T00:04:33.930Z,0
2017-12-10T00:05:33.691Z,0
2017-12-10T00:06:33.367Z,0
2017-12-10T00:07:33.675Z,0
2017-12-10T00:08:34.096Z,0
2017-12-10T00:09:33.868Z,0
2017-12-10T00:10:34.279Z,0
2017-12-10T00:11:35.015Z,0
2017-12-10T00:12:35.003Z,0
2017-12-10T00:13:35.002Z,0
2017-12-10T00:14:34.787Z,0
2017-12-10T00:15:35.347Z,0
2017-12-10T00:16:35.961Z,0
2017-12-10T00:17:34.737Z,0
2017-12-10T00:18:34.788Z,0
2017-12-10T00:19:34.556Z,0
2017-12-10T00:20:36.046Z,0
2017-12-10T00:21:36.064Z,0
2017-12-10T00:22:35.170Z,0
2017-12-10T00:23:35.690Z,0
2017-12-10T00:24:35.471Z,0
2017-12-10T00:25:35.523Z,0
2017-12-10T00:26:36.418Z,0
2017-12-10T00:27:36.363Z,0
2017-12-10T00:28:35.841Z,0
2017-12-10T00:29:36.048Z,0
2017-12-10T00:30:36.529Z,0
2017-12-10T00:31:36.921Z,0
2017-12-10T00:32:37.352Z,0
2017-12-10T00:33:37.172Z,0
2017-12-10T00:34:37.118Z,0
2017-12-10T00:35:37.313Z,0
2017-12-10T00:36:37.669Z,0
2017-12-10T00:37:38.236Z,0
2017-12-10T00:38:38.210Z,0
2017-12-10T00:39:38.646Z,0
2017-12-10T00:40:38.121Z,0
2017-12-10T00:41:38.146Z,0
2017-12-10T00:42:38.226Z,0
2017-12-10T00:43:37.681Z,0
2017-12-10T00:44:38.108Z,0
2017-12-10T00:45:38.300Z,0
2017-12-10T00:46:39.107Z,0
2017-12-10T00:47:38.760Z,0
2017-12-10T00:48:39.476Z,0
2017-12-10T00:49:39.996Z,0
2017-12-10T00:50:41.070Z,0
2017-12-10T00:52:41.738Z,0
2017-12-10T00:53:42.124Z,0
2017-12-10T00:54:41.043Z,0
2017-12-10T00:55:41.536Z,0
2017-12-10T00:56:41.939Z,0
2017-12-10T00:57:41.050Z,0
2017-12-10T00:58:41.379Z,0
2017-12-10T00:59:40.141Z,0
2017-12-10T01:00:40.188Z,0
2017-12-10T01:01:39.848Z,0
2017-12-10T01:02:40.355Z,0
2017-12-10T01:03:41.545Z,0
2017-12-10T01:04:40.697Z,0
2017-12-10T01:05:40.026Z,0
2017-12-10T01:06:41.261Z,0
2017-12-10T01:07:40.271Z,0
2017-12-10T01:08:43.061Z,0
2017-12-10T01:09:40.645Z,0
2017-12-10T01:10:42.560Z,0
2017-12-10T01:11:43.732Z,0
2017-12-10T01:12:43.740Z,0
2017-12-10T01:13:43.019Z,0
2017-12-10T01:14:41.528Z,0
2017-12-10T01:15:43.751Z,0
2017-12-10T01:16:44.010Z,0
2017-12-10T01:17:43.667Z,0
2017-12-10T01:18:42.716Z,0
2017-12-10T01:19:42.290Z,0
2017-12-10T01:20:41.154Z,0
2017-12-10T01:21:41.437Z,0
2017-12-10T01:22:41.884Z,0
2017-12-10T01:23:41.517Z,0
2017-12-10T01:24:42.057Z,0
2017-12-10T01:25:42.193Z,0
2017-12-10T01:26:42.882Z,0
2017-12-10T01:27:42.622Z,0
2017-12-10T01:28:42.783Z,0
2017-12-10T01:29:43.446Z,0
2017-12-10T01:30:42.934Z,0
2017-12-10T01:31:43.552Z,0
2017-12-10T01:32:42.963Z,0
2017-12-10T01:33:43.318Z,0
2017-12-10T01:34:43.267Z,0
2017-12-10T01:35:43.345Z,0
2017-12-10T01:36:43.583Z,0
2017-12-10T01:37:44.522Z,0
2017-12-10T01:38:43.844Z,0
2017-12-10T01:39:43.489Z,0
2017-12-10T01:40:43.778Z,0
2017-12-10T01:41:44.324Z,0
2017-12-10T01:42:44.297Z,0
2017-12-10T01:43:45.219Z,0
2017-12-10T01:44:45.018Z,0
2017-12-10T01:45:45.374Z,0
2017-12-10T01:46:46.041Z,0
2017-12-10T01:47:45.610Z,0
2017-12-10T01:48:45.359Z,0
2017-12-10T01:49:45.004Z,0
2017-12-10T01:50:45.097Z,0
2017-12-10T01:51:46.090Z,0
2017-12-10T01:52:44.806Z,0
2017-12-10T01:53:45.007Z,0
2017-12-10T01:54:45.536Z,0
2017-12-10T01:55:45.378Z,0
2017-12-10T01:56:45.427Z,0
2017-12-10T01:57:45.423Z,0
2017-12-10T01:58:59.937Z,0
2017-12-10T01:59:44.886Z,0
2017-12-10T02:00:46.762Z,0
2017-12-10T02:01:46.250Z,0
2017-12-10T02:02:46.342Z,0
2017-12-10T02:03:45.752Z,0
2017-12-10T02:04:45.323Z,0
2017-12-10T02:05:46.574Z,0
2017-12-10T02:06:46.263Z,0
2017-12-10T02:07:46.382Z,0
2017-12-10T02:08:47.055Z,0
2017-12-10T02:09:47.053Z,0
2017-12-10T02:10:47.298Z,0
2017-12-10T02:11:46.591Z,0
2017-12-10T02:12:47.059Z,0
2017-12-10T02:13:48.256Z,0
2017-12-10T02:14:48.250Z,0
2017-12-10T02:16:01.450Z,0
2017-12-10T02:16:46.529Z,0
2017-12-10T02:17:47.230Z,0
2017-12-10T02:18:47.063Z,0
2017-12-10T02:19:46.767Z,0
2017-12-10T02:20:47.546Z,0
2017-12-10T02:21:46.970Z,0
2017-12-10T02:22:46.815Z,0
2017-12-10T02:23:47.714Z,0
2017-12-10T02:24:47.152Z,0
2017-12-10T02:25:47.679Z,0
2017-12-10T02:26:47.799Z,0
2017-12-10T02:27:48.215Z,0
2017-12-10T02:28:48.645Z,0
2017-12-10T02:29:53.674Z,0
2017-12-10T02:30:54.087Z,0
2017-12-10T02:31:54.515Z,0
2017-12-10T02:32:54.002Z,0
2017-12-10T02:33:54.298Z,0
2017-12-10T02:34:54.404Z,0
2017-12-10T02:35:54.912Z,0
2017-12-10T02:37:08.923Z,0
2017-12-10T02:37:54.310Z,0
2017-12-10T02:38:54.356Z,0
2017-12-10T02:39:59.449Z,0
2017-12-10T02:41:01.663Z,0
2017-12-10T02:42:00.033Z,0
2017-12-10T02:42:59.432Z,0
2017-12-10T02:43:59.577Z,0
2017-12-10T02:44:59.604Z,0
2017-12-10T02:46:00.326Z,0
2017-12-10T02:47:01.063Z,0
2017-12-10T02:48:03.339Z,0
2017-12-10T02:49:00.075Z,0
2017-12-10T02:50:00.242Z,0
2017-12-10T02:51:00.604Z,0
2017-12-10T02:52:07.016Z,0
2017-12-10T02:53:01.395Z,0
2017-12-10T02:54:01.276Z,0
2017-12-10T02:56:01.446Z,0
2017-12-10T02:57:01.130Z,0
2017-12-10T02:58:00.991Z,0
2017-12-10T02:59:01.004Z,0
2017-12-10T03:00:01.721Z,0
2017-12-10T03:01:01.598Z,0
2017-12-10T03:02:02.023Z,0
2017-12-10T03:04:01.038Z,0
2017-12-10T03:04:17.050Z,0
2017-12-10T03:05:16.564Z,0
2017-12-10T03:06:31.580Z,0
2017-12-10T03:07:17.071Z,0
2017-12-10T03:08:17.286Z,0
2017-12-10T03:09:17.930Z,0
2017-12-10T03:10:17.338Z,0
2017-12-10T03:11:17.342Z,0
2017-12-10T03:12:17.100Z,0
2017-12-10T03:13:17.268Z,0
2017-12-10T03:14:17.962Z,0
2017-12-10T03:15:18.910Z,0
2017-12-10T03:16:18.010Z,0
2017-12-10T03:17:33.005Z,0
2017-12-10T03:18:19.023Z,0
2017-12-10T03:19:33.546Z,0
2017-12-10T03:21:23.889Z,0
2017-12-10T03:22:24.233Z,0
2017-12-10T03:23:38.271Z,0
2017-12-10T03:24:23.990Z,0
2017-12-10T03:25:38.603Z,0
2017-12-10T03:26:23.772Z,0
2017-12-10T03:27:24.153Z,0
2017-12-10T03:28:53.258Z,0
2017-12-10T03:29:53.261Z,0
2017-12-10T03:30:38.072Z,0
2017-12-10T03:31:41.231Z,0
2017-12-10T03:32:38.181Z,0
2017-12-10T03:33:39.088Z,0
2017-12-10T03:34:44.152Z,0
2017-12-10T03:35:58.810Z,0
2017-12-10T03:36:55.730Z,0
2017-12-10T03:38:54.108Z,0
2017-12-10T03:39:54.165Z,0
2017-12-10T03:40:59.185Z,0
2017-12-10T03:41:59.935Z,0
2017-12-10T03:43:01.366Z,0
2017-12-10T03:44:07.187Z,0
2017-12-10T03:45:21.022Z,0
2017-12-10T03:46:06.399Z,0
2017-12-10T03:47:22.750Z,0
2017-12-10T03:48:06.819Z,0
2017-12-10T03:49:06.827Z,0
2017-12-10T03:50:06.925Z,0
2017-12-10T03:51:06.877Z,0
2017-12-10T03:52:06.636Z,0
2017-12-10T03:53:07.728Z,0
2017-12-10T03:54:12.483Z,0
2017-12-10T03:55:27.392Z,0
2017-12-10T03:56:13.308Z,0
2017-12-10T03:57:14.724Z,0
2017-12-10T03:58:13.126Z,0
2017-12-10T03:59:12.874Z,0
2017-12-10T04:00:31.935Z,0
2017-12-10T04:01:13.600Z,0
2017-12-10T04:02:27.870Z,0
2017-12-10T04:03:12.842Z,0
2017-12-10T04:04:18.735Z,0
2017-12-10T04:05:19.451Z,0
2017-12-10T04:06:18.884Z,0
2017-12-10T04:07:19.555Z,0
2017-12-10T04:08:19.780Z,0
2017-12-10T04:09:19.969Z,0
2017-12-10T04:10:19.596Z,0
2017-12-10T04:11:20.037Z,0
2017-12-10T04:12:20.201Z,0
2017-12-10T04:13:20.977Z,0
2017-12-10T04:14:20.698Z,0
2017-12-10T04:15:20.834Z,0
2017-12-10T04:16:20.669Z,0
2017-12-10T04:17:21.094Z,0
2017-12-10T04:18:21.784Z,0
2017-12-10T04:19:21.987Z,0
2017-12-10T04:20:21.915Z,0
2017-12-10T04:21:22.337Z,0
2017-12-10T04:22:22.841Z,0
2017-12-10T04:23:22.235Z,0
2017-12-10T04:24:22.940Z,0
2017-12-10T04:25:22.420Z,0
2017-12-10T04:26:22.895Z,0
2017-12-10T04:27:22.614Z,0
2017-12-10T04:28:23.295Z,0
2017-12-10T04:29:23.366Z,0
2017-12-10T04:30:23.996Z,0
2017-12-10T04:31:23.998Z,0
2017-12-10T04:32:23.580Z,0
2017-12-10T04:33:24.038Z,0
2017-12-10T04:34:23.973Z,0
2017-12-10T04:35:24.191Z,0
2017-12-10T04:36:24.083Z,0
2017-12-10T04:37:24.224Z,0
2017-12-10T04:38:24.896Z,0
2017-12-10T04:39:24.726Z,0
2017-12-10T04:40:24.881Z,0
2017-12-10T04:41:25.056Z,0
2017-12-10T04:42:25.320Z,0
2017-12-10T04:43:25.346Z,0
2017-12-10T04:44:25.559Z,0
2017-12-10T04:45:25.761Z,0
2017-12-10T04:46:26.394Z,0
2017-12-10T04:47:26.057Z,0
2017-12-10T04:48:26.742Z,0
2017-12-10T04:49:27.104Z,0
2017-12-10T04:50:27.171Z,0
2017-12-10T04:51:27.221Z,0
2017-12-10T04:52:27.168Z,0
2017-12-10T04:53:27.170Z,0
2017-12-10T04:54:26.954Z,0
2017-12-10T04:55:27.676Z,0
2017-12-10T04:56:27.621Z,0
2017-12-10T04:57:27.452Z,0
2017-12-10T04:58:27.427Z,0
2017-12-10T04:59:27.858Z,0
2017-12-10T05:00:33.400Z,0
2017-12-10T05:01:32.467Z,0
2017-12-10T05:02:33.150Z,0
2017-12-10T05:03:32.943Z,0
2017-12-10T05:04:33.424Z,0
2017-12-10T05:05:33.374Z,0
2017-12-10T05:06:33.508Z,0
2017-12-10T05:07:33.662Z,0
2017-12-10T05:08:34.377Z,0
2017-12-10T05:09:34.788Z,0
2017-12-10T05:10:34.550Z,0
2017-12-10T05:11:35.224Z,0
2017-12-10T05:12:35.281Z,0
2017-12-10T05:13:35.187Z,0
2017-12-10T05:14:35.188Z,0
2017-12-10T05:15:35.291Z,0
2017-12-10T05:16:35.330Z,0
2017-12-10T05:17:35.080Z,0
2017-12-10T05:18:35.396Z,0
2017-12-10T05:19:35.408Z,0
2017-12-10T05:20:35.445Z,0
2017-12-10T05:21:35.257Z,0
2017-12-10T05:22:35.193Z,0
2017-12-10T05:23:35.597Z,0
2017-12-10T05:24:36.290Z,0
2017-12-10T05:25:36.287Z,0
2017-12-10T05:26:36.324Z,0
2017-12-10T05:27:36.035Z,0
2017-12-10T05:28:36.409Z,0
2017-12-10T05:29:36.558Z,0
2017-12-10T05:30:36.583Z,0
2017-12-10T05:31:37.350Z,0
2017-12-10T05:32:37.301Z,0
2017-12-10T05:33:37.037Z,0
2017-12-10T05:34:52.366Z,0
2017-12-10T05:35:37.710Z,0
2017-12-10T05:36:38.108Z,0
2017-12-10T05:37:37.583Z,0
2017-12-10T05:38:37.967Z,0
2017-12-10T05:39:38.142Z,0
2017-12-10T05:40:38.570Z,0
2017-12-10T05:41:38.706Z,0
2017-12-10T05:42:39.384Z,0
2017-12-10T05:43:38.865Z,0
2017-12-10T05:44:39.179Z,0
2017-12-10T05:45:39.639Z,0
2017-12-10T05:46:39.364Z,0
2017-12-10T05:47:39.295Z,0
2017-12-10T05:48:40.055Z,0
2017-12-10T05:49:39.335Z,0
2017-12-10T05:50:40.090Z,0
2017-12-10T05:51:39.888Z,0
2017-12-10T05:52:40.562Z,0
2017-12-10T05:53:40.554Z,0
2017-12-10T05:54:40.334Z,0
2017-12-10T05:55:55.598Z,0
2017-12-10T05:56:40.801Z,0
2017-12-10T05:57:41.235Z,0
2017-12-10T05:58:41.387Z,0
2017-12-10T05:59:42.047Z,0
2017-12-10T06:00:42.036Z,0
2017-12-10T06:01:42.105Z,0
2017-12-10T06:02:42.102Z,0
2017-12-10T06:03:42.480Z,0
2017-12-10T06:04:42.612Z,0
2017-12-10T06:05:42.257Z,0
2017-12-10T06:07:42.994Z,0
2017-12-10T06:08:42.725Z,0
2017-12-10T06:09:43.833Z,0
2017-12-10T06:10:43.913Z,0
2017-12-10T06:11:44.362Z,0
2017-12-10T06:12:43.728Z,0
2017-12-10T06:13:43.700Z,0
2017-12-10T06:14:44.297Z,0
2017-12-10T06:15:44.638Z,0
2017-12-10T06:16:44.545Z,0
2017-12-10T06:17:43.996Z,0
2017-12-10T06:18:44.300Z,0
2017-12-10T06:19:44.846Z,0
2017-12-10T06:20:45.102Z,0
2017-12-10T06:21:44.856Z,0
2017-12-10T06:22:44.695Z,0
2017-12-10T06:23:44.338Z,0
2017-12-10T06:24:45.384Z,0
2017-12-10T06:25:44.797Z,0
2017-12-10T06:26:44.980Z,0
2017-12-10T06:27:45.811Z,0
2017-12-10T06:28:45.374Z,0
2017-12-10T06:29:45.829Z,0
2017-12-10T06:30:46.269Z,0
2017-12-10T06:31:46.636Z,0
2017-12-10T06:32:47.055Z,0
2017-12-10T06:33:47.483Z,0
2017-12-10T06:34:48.733Z,0
2017-12-10T06:35:48.451Z,0
2017-12-10T06:36:48.459Z,0
2017-12-10T06:37:48.665Z,0
2017-12-10T06:38:48.123Z,0
2017-12-10T06:39:48.629Z,0
2017-12-10T06:40:48.896Z,0
2017-12-10T06:41:48.947Z,0
2017-12-10T06:42:49.128Z,0
2017-12-10T06:43:49.114Z,0
2017-12-10T06:44:49.315Z,0
2017-12-10T06:45:49.587Z,0
2017-12-10T06:46:49.309Z,0
2017-12-10T06:47:49.725Z,0
2017-12-10T06:48:49.981Z,0
2017-12-10T06:49:50.457Z,0
2017-12-10T06:50:49.858Z,0
2017-12-10T06:51:50.050Z,0
2017-12-10T06:52:50.752Z,0
2017-12-10T06:53:50.828Z,0
2017-12-10T06:54:51.080Z,0
2017-12-10T06:55:51.374Z,0
2017-12-10T06:56:50.645Z,0
2017-12-10T06:57:51.342Z,0
2017-12-10T06:58:50.629Z,0
2017-12-10T06:59:51.347Z,0
2017-12-10T07:01:06.302Z,0
2017-12-10T07:01:51.458Z,0
2017-12-10T07:02:51.395Z,5
2017-12-10T07:03:50.873Z,5
2017-12-10T07:04:51.302Z,5
2017-12-10T07:05:51.465Z,5
2017-12-10T07:06:51.891Z,5
2017-12-10T07:07:52.037Z,5
2017-12-10T07:08:51.782Z,5
2017-12-10T07:09:52.096Z,10
2017-12-10T07:10:52.611Z,10
2017-12-10T07:11:52.776Z,10
2017-12-10T07:12:53.164Z,15
2017-12-10T07:13:53.977Z,15
2017-12-10T07:14:53.453Z,15
2017-12-10T07:15:53.723Z,15
2017-12-10T07:16:53.669Z,20
2017-12-10T07:17:54.162Z,20
2017-12-10T07:18:54.001Z,20
2017-12-10T07:19:54.213Z,25
2017-12-10T07:20:54.152Z,25
2017-12-10T07:21:54.355Z,25
2017-12-10T07:22:54.786Z,25
2017-12-10T07:23:54.829Z,30
2017-12-10T07:24:55.562Z,30
2017-12-10T07:25:55.306Z,35
2017-12-10T07:26:55.242Z,35
2017-12-10T07:27:55.995Z,35
2017-12-10T07:28:56.018Z,40
2017-12-10T07:29:55.996Z,40
2017-12-10T07:30:55.753Z,40
2017-12-10T07:31:56.263Z,45
2017-12-10T07:32:55.975Z,45
2017-12-10T07:33:56.914Z,45
2017-12-10T07:34:56.455Z,45
2017-12-10T07:35:56.968Z,45
2017-12-10T07:36:56.692Z,50
2017-12-10T07:37:56.692Z,50
2017-12-10T07:38:56.347Z,50
2017-12-10T07:39:57.294Z,50
2017-12-10T07:40:57.075Z,50
2017-12-10T07:41:57.508Z,50
2017-12-10T07:42:58.246Z,55
2017-12-10T07:43:58.511Z,55
2017-12-10T07:44:58.650Z,60
2017-12-10T07:45:58.069Z,60
2017-12-10T07:46:58.492Z,65
2017-12-10T07:47:59.011Z,65
2017-12-10T07:48:59.286Z,75
2017-12-10T07:49:59.131Z,70
2017-12-10T07:50:58.989Z,70
2017-12-10T07:51:59.813Z,75
2017-12-10T07:53:00.278Z,75
2017-12-10T07:54:00.218Z,80
2017-12-10T07:55:00.103Z,80
2017-12-10T07:56:01.701Z,85
2017-12-10T07:57:00.352Z,90
2017-12-10T07:58:00.239Z,90
2017-12-10T07:59:02.104Z,95
2017-12-10T08:00:01.600Z,100
2017-12-10T08:01:03.957Z,105
2017-12-10T08:02:00.785Z,105
2017-12-10T08:03:00.556Z,105
2017-12-10T08:04:01.626Z,110
2017-12-10T08:05:00.932Z,110
2017-12-10T08:06:01.062Z,115
2017-12-10T08:07:00.869Z,115
2017-12-10T08:08:01.006Z,115
2017-12-10T08:09:01.030Z,120
2017-12-10T08:10:00.788Z,120
2017-12-10T08:11:01.175Z,125
2017-12-10T08:12:01.464Z,125
2017-12-10T08:13:01.273Z,130
2017-12-10T08:14:01.041Z,125
2017-12-10T08:15:00.787Z,130
2017-12-10T08:16:01.238Z,135
2017-12-10T08:17:01.716Z,140
2017-12-10T08:18:01.260Z,140
2017-12-10T08:19:01.548Z,135
2017-12-10T08:20:01.720Z,130
2017-12-10T08:21:01.513Z,125
2017-12-10T08:22:01.990Z,115
2017-12-10T08:23:01.927Z,120
2017-12-10T08:24:01.944Z,120
2017-12-10T08:25:02.340Z,120
2017-12-10T08:26:01.745Z,115
2017-12-10T08:27:01.392Z,115
2017-12-10T08:28:01.897Z,120
2017-12-10T08:29:02.120Z,120
2017-12-10T08:30:01.605Z,120
2017-12-10T08:31:01.633Z,120
2017-12-10T08:32:02.433Z,120
2017-12-10T08:33:02.486Z,125
2017-12-10T08:34:02.580Z,125
2017-12-10T08:35:02.210Z,130
2017-12-10T08:36:01.936Z,135
2017-12-10T08:37:02.499Z,130
2017-12-10T08:38:03.013Z,130
2017-12-10T08:39:01.938Z,135
2017-12-10T08:40:03.036Z,145
2017-12-10T08:41:02.254Z,155
2017-12-10T08:42:02.678Z,165
2017-12-10T08:43:02.399Z,165
2017-12-10T08:44:18.033Z,175
2017-12-10T08:45:03.411Z,180
2017-12-10T08:46:03.213Z,185
2017-12-10T08:47:03.661Z,190
2017-12-10T08:48:04.552Z,195
2017-12-10T08:49:03.672Z,205
2017-12-10T08:50:03.682Z,205
2017-12-10T08:51:04.223Z,205
2017-12-10T08:52:03.842Z,210
2017-12-10T08:53:03.726Z,225
2017-12-10T08:54:04.362Z,235
2017-12-10T08:55:04.655Z,245
2017-12-10T08:56:04.676Z,250
2017-12-10T08:57:04.601Z,250
2017-12-10T08:58:04.412Z,255
2017-12-10T08:59:04.618Z,255
2017-12-10T09:00:05.170Z,255
2017-12-10T09:02:04.879Z,260
2017-12-10T09:03:05.342Z,275
2017-12-10T09:04:05.464Z,310
2017-12-10T09:05:05.905Z,330
2017-12-10T09:06:05.894Z,345
2017-12-10T09:07:05.858Z,355
2017-12-10T09:08:05.512Z,355
2017-12-10T09:09:06.054Z,355
2017-12-10T09:10:06.936Z,360
2017-12-10T09:11:06.741Z,360
2017-12-10T09:12:07.446Z,350
2017-12-10T09:13:06.962Z,345
2017-12-10T09:14:06.806Z,335
2017-12-10T09:15:06.247Z,335
2017-12-10T09:16:06.602Z,340
2017-12-10T09:17:08.181Z,335
2017-12-10T09:18:08.203Z,320
2017-12-10T09:19:08.125Z,315
2017-12-10T09:20:07.201Z,325
2017-12-10T09:21:07.156Z,355
2017-12-10T09:22:06.590Z,330
2017-12-10T09:23:07.275Z,320
2017-12-10T09:24:12.591Z,345
2017-12-10T09:25:12.176Z,365
2017-12-10T09:26:12.641Z,350
2017-12-10T09:27:12.084Z,365
2017-12-10T09:28:12.854Z,345
2017-12-10T09:29:15.260Z,255
2017-12-10T09:30:13.779Z,260
2017-12-10T09:31:13.816Z,275
2017-12-10T09:32:13.600Z,290
2017-12-10T09:33:14.086Z,260
2017-12-10T09:34:13.664Z,260
2017-12-10T09:35:13.967Z,280
2017-12-10T09:36:15.386Z,300
2017-12-10T09:37:14.982Z,285
2017-12-10T09:38:15.089Z,290
2017-12-10T09:39:15.071Z,280
2017-12-10T09:40:14.518Z,280
2017-12-10T09:41:15.401Z,285
2017-12-10T09:42:15.639Z,270
2017-12-10T09:43:15.034Z,280
2017-12-10T09:44:14.972Z,285
2017-12-10T09:45:15.885Z,280
2017-12-10T09:46:16.168Z,285
2017-12-10T09:47:15.244Z,290
2017-12-10T09:48:31.021Z,285
2017-12-10T09:49:30.518Z,285
2017-12-10T09:50:15.776Z,285
2017-12-10T09:51:15.479Z,290
2017-12-10T09:52:15.539Z,285
2017-12-10T09:53:15.962Z,285
2017-12-10T09:54:16.506Z,285
2017-12-10T09:55:16.219Z,275
2017-12-10T09:56:17.604Z,250
2017-12-10T09:57:16.771Z,250
2017-12-10T09:58:17.250Z,240
2017-12-10T09:59:16.825Z,235
2017-12-10T10:00:16.805Z,225
2017-12-10T10:01:42.170Z,215
2017-12-10T10:02:27.041Z,210
2017-12-10T10:03:27.364Z,195
2017-12-10T10:04:27.378Z,220
2017-12-10T10:05:27.505Z,200
2017-12-10T10:06:27.349Z,200
2017-12-10T10:07:27.893Z,220
2017-12-10T10:08:27.480Z,225
2017-12-10T10:09:27.500Z,225
2017-12-10T10:10:27.822Z,220
2017-12-10T10:11:27.567Z,210
2017-12-10T10:12:26.983Z,200
2017-12-10T10:13:27.930Z,205
2017-12-10T10:14:27.880Z,235
2017-12-10T10:15:27.335Z,255
2017-12-10T10:16:27.979Z,265
2017-12-10T10:17:28.344Z,280
2017-12-10T10:18:29.000Z,285
2017-12-10T10:19:29.444Z,300
2017-12-10T10:20:29.241Z,300
2017-12-10T10:21:28.847Z,310
2017-12-10T10:22:28.964Z,330
2017-12-10T10:23:29.409Z,335
2017-12-10T10:25:29.889Z,335
2017-12-10T10:26:30.710Z,340
2017-12-10T10:27:30.919Z,335
2017-12-10T10:28:29.901Z,325
2017-12-10T10:29:30.349Z,330
2017-12-10T10:30:30.742Z,320
2017-12-10T10:31:30.577Z,310
2017-12-10T10:32:30.644Z,225
2017-12-10T10:33:40.513Z,280
2017-12-10T10:34:40.720Z,270
2017-12-10T10:35:41.424Z,320
2017-12-10T10:36:42.240Z,225
2017-12-10T10:37:41.273Z,200
2017-12-10T10:38:41.294Z,235
2017-12-10T10:39:42.130Z,270
2017-12-10T10:40:41.840Z,320
2017-12-10T10:41:41.317Z,320
2017-12-10T10:42:41.575Z,280
2017-12-10T10:43:41.432Z,220
2017-12-10T10:44:42.250Z,200
2017-12-10T10:45:52.309Z,175
2017-12-10T10:46:52.275Z,165
2017-12-10T10:47:52.770Z,160
2017-12-10T10:48:52.713Z,165
2017-12-10T10:50:07.534Z,170
2017-12-10T10:50:53.435Z,185
2017-12-10T10:51:53.395Z,190
2017-12-10T10:52:52.771Z,170
2017-12-10T10:53:53.254Z,155
2017-12-10T10:54:53.390Z,150
2017-12-10T10:55:54.388Z,145
2017-12-10T10:56:54.089Z,150
2017-12-10T10:57:54.257Z,165
2017-12-10T10:58:54.860Z,170
2017-12-10T10:59:54.032Z,175
2017-12-10T11:01:09.057Z,175
2017-12-10T11:02:00.431Z,165
2017-12-10T11:02:59.702Z,150
2017-12-10T11:03:59.867Z,165
2017-12-10T11:04:59.480Z,165
2017-12-10T11:05:59.741Z,185
2017-12-10T11:06:59.297Z,190
2017-12-10T11:07:59.667Z,190
2017-12-10T11:08:59.196Z,185
2017-12-10T11:09:59.780Z,175
2017-12-10T11:10:59.422Z,180
2017-12-10T11:11:59.818Z,180
2017-12-10T11:12:59.991Z,160
2017-12-10T11:14:00.188Z,160
2017-12-10T11:15:00.172Z,155
2017-12-10T11:15:59.770Z,165
2017-12-10T11:16:59.575Z,155
2017-12-10T11:18:00.007Z,165
2017-12-10T11:19:00.682Z,155
2017-12-10T11:20:00.342Z,150
2017-12-10T11:21:01.004Z,150
2017-12-10T11:22:00.492Z,150
2017-12-10T11:23:00.992Z,155
2017-12-10T11:24:00.864Z,155
2017-12-10T11:25:01.340Z,150
2017-12-10T11:26:02.005Z,140
2017-12-10T11:27:01.315Z,130
2017-12-10T11:28:02.137Z,150
2017-12-10T11:29:01.833Z,140
2017-12-10T11:30:01.356Z,125
2017-12-10T11:31:01.452Z,115
2017-12-10T11:32:02.018Z,110
2017-12-10T11:33:01.639Z,110
2017-12-10T11:34:02.034Z,120
2017-12-10T11:35:01.714Z,115
2017-12-10T11:36:16.868Z,120
2017-12-10T11:37:03.030Z,115
2017-12-10T11:38:02.553Z,110
2017-12-10T11:39:02.744Z,105
2017-12-10T11:40:02.789Z,105
2017-12-10T11:41:03.423Z,105
2017-12-10T11:42:02.794Z,110
2017-12-10T11:43:02.834Z,110
2017-12-10T11:44:02.725Z,110
2017-12-10T11:45:03.093Z,115
2017-12-10T11:46:03.317Z,115
2017-12-10T11:47:04.439Z,120
2017-12-10T11:48:03.416Z,130
2017-12-10T11:49:03.260Z,135
2017-12-10T11:50:03.724Z,145
2017-12-10T11:51:03.183Z,145
2017-12-10T11:52:03.170Z,150
2017-12-10T11:53:03.217Z,150
2017-12-10T11:54:03.941Z,150
2017-12-10T11:55:03.508Z,150
2017-12-10T11:56:03.460Z,145
2017-12-10T11:57:04.237Z,145
2017-12-10T11:58:04.053Z,150
2017-12-10T11:59:05.075Z,155
2017-12-10T12:00:04.883Z,160
2017-12-10T12:01:18.546Z,160
2017-12-10T12:02:14.463Z,160
2017-12-10T12:03:27.891Z,160
2017-12-10T12:04:13.543Z,160
2017-12-10T12:05:13.637Z,160
2017-12-10T12:06:14.313Z,170
2017-12-10T12:07:12.921Z,180
2017-12-10T12:08:14.760Z,185
2017-12-10T12:09:14.850Z,185
2017-12-10T12:10:14.454Z,190
2017-12-10T12:11:14.544Z,200
2017-12-10T12:12:14.581Z,200
2017-12-10T12:13:13.915Z,200
2017-12-10T12:14:14.788Z,190
2017-12-10T12:15:14.418Z,175
2017-12-10T12:16:14.417Z,160
2017-12-10T12:17:14.699Z,150
2017-12-10T12:18:29.696Z,140
2017-12-10T12:19:14.673Z,140
2017-12-10T12:20:14.103Z,135
2017-12-10T12:21:14.948Z,135
2017-12-10T12:22:15.110Z,130
2017-12-10T12:23:15.575Z,125
2017-12-10T12:24:15.551Z,125
2017-12-10T12:25:15.997Z,125
2017-12-10T12:26:16.538Z,125
2017-12-10T12:27:16.456Z,125
2017-12-10T12:28:16.345Z,125
2017-12-10T12:29:16.996Z,120
2017-12-10T12:30:16.836Z,120
2017-12-10T12:31:17.227Z,120
2017-12-10T12:32:16.680Z,115
2017-12-10T12:33:17.417Z,115
2017-12-10T12:34:17.933Z,115
2017-12-10T12:35:17.621Z,110
2017-12-10T12:36:17.319Z,110
2017-12-10T12:37:17.943Z,110
2017-12-10T12:38:17.690Z,105
2017-12-10T12:39:17.859Z,105
2017-12-10T12:40:18.314Z,105
2017-12-10T12:41:18.288Z,100
2017-12-10T12:42:18.723Z,100
2017-12-10T12:43:18.843Z,100
2017-12-10T12:44:18.833Z,95
2017-12-10T12:45:19.095Z,95
2017-12-10T12:46:19.596Z,95
2017-12-10T12:47:34.082Z,95
2017-12-10T12:48:18.984Z,95
2017-12-10T12:49:19.278Z,100
2017-12-10T12:50:19.776Z,95
2017-12-10T12:51:19.928Z,95
2017-12-10T12:52:19.948Z,95
2017-12-10T12:53:19.896Z,95
2017-12-10T12:54:20.301Z,95
2017-12-10T12:55:20.485Z,95
2017-12-10T12:56:21.737Z,90
2017-12-10T12:57:21.338Z,90
2017-12-10T12:58:21.091Z,90
2017-12-10T12:59:20.840Z,85
2017-12-10T13:00:21.372Z,85
2017-12-10T13:01:21.303Z,80
2017-12-10T13:02:42.471Z,80
2017-12-10T13:03:51.608Z,80
2017-12-10T13:04:38.085Z,75
2017-12-10T13:05:43.134Z,75
2017-12-10T13:06:37.914Z,75
2017-12-10T13:07:52.337Z,75
2017-12-10T13:08:38.605Z,75
2017-12-10T13:09:39.194Z,75
2017-12-10T13:10:37.569Z,75
2017-12-10T13:11:38.089Z,75
2017-12-10T13:12:38.221Z,75
2017-12-10T13:13:37.786Z,75
2017-12-10T13:14:37.724Z,75
2017-12-10T13:15:38.068Z,75
2017-12-10T13:16:37.957Z,70
2017-12-10T13:17:38.258Z,70
2017-12-10T13:18:38.508Z,70
2017-12-10T13:19:38.512Z,70
2017-12-10T13:20:39.232Z,70
2017-12-10T13:21:38.984Z,70
2017-12-10T13:22:40.881Z,70
2017-12-10T13:23:41.915Z,70
2017-12-10T13:24:40.301Z,65
2017-12-10T13:25:39.257Z,65
2017-12-10T13:26:40.708Z,60
2017-12-10T13:27:39.208Z,60
2017-12-10T13:28:42.388Z,60
2017-12-10T13:29:42.294Z,60
2017-12-10T13:30:42.268Z,55
2017-12-10T13:31:42.324Z,55
2017-12-10T13:32:40.764Z,55
2017-12-10T13:33:41.553Z,55
2017-12-10T13:34:40.602Z,55
2017-12-10T13:35:41.483Z,55
2017-12-10T13:36:43.035Z,50
2017-12-10T13:37:42.440Z,50
2017-12-10T13:38:42.328Z,50
2017-12-10T13:39:40.603Z,45
2017-12-10T13:40:42.128Z,45
2017-12-10T13:41:40.520Z,45
2017-12-10T13:42:41.429Z,45
2017-12-10T13:43:41.378Z,40
2017-12-10T13:44:40.966Z,40
2017-12-10T13:45:40.363Z,40
2017-12-10T13:46:42.741Z,40
2017-12-10T13:47:41.956Z,35
2017-12-10T13:48:42.996Z,35
2017-12-10T13:49:41.971Z,35
2017-12-10T13:50:42.195Z,35
2017-12-10T13:51:41.712Z,35
2017-12-10T13:52:40.728Z,35
2017-12-10T13:53:41.481Z,35
2017-12-10T13:54:41.669Z,35
2017-12-10T13:55:56.745Z,35
2017-12-10T13:56:40.926Z,35
2017-12-10T13:57:41.738Z,35
2017-12-10T13:58:41.451Z,35
2017-12-10T13:59:41.666Z,30
2017-12-10T14:00:41.356Z,30
2017-12-10T14:01:56.811Z,30
2017-12-10T14:02:58.133Z,30
2017-12-10T14:04:11.473Z,30
2017-12-10T14:04:56.363Z,25
2017-12-10T14:05:58.003Z,25
2017-12-10T14:06:58.682Z,25
2017-12-10T14:07:58.311Z,25
2017-12-10T14:08:57.555Z,20
2017-12-10T14:09:56.859Z,20
2017-12-10T14:10:57.645Z,20
2017-12-10T14:11:57.775Z,20
2017-12-10T14:12:58.197Z,15
2017-12-10T14:13:57.883Z,15
2017-12-10T14:15:00.418Z,15
2017-12-10T14:15:58.943Z,15
2017-12-10T14:16:59.224Z,15
2017-12-10T14:17:58.810Z,10
2017-12-10T14:19:05.203Z,10
2017-12-10T14:20:06.342Z,10
2017-12-10T14:21:04.146Z,10
2017-12-10T14:22:03.809Z,10
2017-12-10T14:23:03.291Z,10
2017-12-10T14:24:03.693Z,10
2017-12-10T14:25:06.176Z,10
2017-12-10T14:26:05.322Z,10
2017-12-10T14:27:06.078Z,10
2017-12-10T14:28:03.768Z,5
2017-12-10T14:29:04.686Z,5
2017-12-10T14:30:05.334Z,5
2017-12-10T14:31:03.971Z,5
2017-12-10T14:32:09.100Z,5